Time;durP1;ratioP1;P1;durP2;ratioP2;P2;SDS_P1;SDS_P2;PMS_P1;PMS_P2;Temp;Humidity;BMP_temperature;BMP_pressure;BME280_temperature;BME280_humidity;BME280_pressure;Samples;Min_cycle;Max_cycle;Signal;HPM_P1;HPM_P2
2023/02/08 00:00:11;;;;;;;;;;;-0.70;99.90;;;;;;5075870;28;19926;-62
2023/02/08 00:02:37;;;;;;;;;;;-0.70;99.90;;;;;;5075381;28;19928;-63
2023/02/08 00:05:05;;;;;;;;;;;-0.70;99.90;;;;;;5074288;28;19930;-63
2023/02/08 00:07:31;;;;;;;;;;;-0.60;99.90;;;;;;5075216;28;19920;-63
2023/02/08 00:10:00;;;;;;;;;;;-0.60;99.90;;;;;;5075133;28;19927;-63
2023/02/08 00:12:27;;;;;;;;;;;-0.70;99.90;;;;;;5075934;28;19920;-63
2023/02/08 00:14:54;;;;;;;;;;;-0.70;99.90;;;;;;5071790;28;19924;-63
2023/02/08 00:17:20;;;;;;;;;;;-0.60;99.90;;;;;;5078871;28;19927;-62
2023/02/08 00:19:47;;;;;;;;;;;-0.60;99.90;;;;;;5079970;28;20355;-62
2023/02/08 00:22:14;;;;;;;;;;;-0.60;99.90;;;;;;5080550;28;19921;-62
2023/02/08 00:24:41;;;;;;;;;;;-0.70;99.90;;;;;;5078694;28;19921;-62
2023/02/08 00:27:09;;;;;;;;;;;-0.60;99.90;;;;;;5080366;28;19921;-63
2023/02/08 00:29:36;;;;;;;;;;;-0.50;99.90;;;;;;5079243;28;19987;-66
2023/02/08 00:32:03;;;;;;;;;;;-0.50;99.90;;;;;;5078269;28;19932;-62
2023/02/08 00:34:30;;;;;;;;;;;-0.40;99.90;;;;;;5077229;28;19926;-64
2023/02/08 00:36:57;;;;;;;;;;;-0.50;99.90;;;;;;5079216;28;19920;-62
2023/02/08 00:39:24;;;;;;;;;;;-0.50;99.90;;;;;;5079511;28;20102;-62
2023/02/08 00:41:51;;;;;;;;;;;-0.60;99.90;;;;;;5078132;28;19921;-63
2023/02/08 00:44:19;;;;;;;;;;;-0.50;99.90;;;;;;5078957;28;19927;-63
2023/02/08 00:46:46;;;;;;;;;;;-0.50;99.90;;;;;;5078857;28;20223;-63
2023/02/08 00:49:13;;;;;;;;;;;-0.60;99.90;;;;;;5078920;28;19924;-62
2023/02/08 00:51:40;;;;;;;;;;;-0.60;99.90;;;;;;5080517;28;20304;-63
2023/02/08 00:54:07;;;;;;;;;;;-0.70;99.90;;;;;;5079829;28;19928;-63
2023/02/08 00:56:34;;;;;;;;;;;-0.70;99.90;;;;;;5079737;28;19924;-63
2023/02/08 00:59:01;;;;;;;;;;;-0.80;99.90;;;;;;5078850;28;19920;-62
2023/02/08 01:01:29;;;;;;;;;;;-0.70;99.90;;;;;;5079109;28;19920;-63
2023/02/08 01:03:56;;;;;;;;;;;-0.70;99.90;;;;;;5079239;28;19920;-63
2023/02/08 01:06:22;;;;;;;;;;;-0.70;99.90;;;;;;5078039;28;19920;-63
2023/02/08 01:08:49;;;;;;;;;;;-0.70;99.90;;;;;;5077924;28;19921;-62
2023/02/08 01:11:17;;;;;;;;;;;-0.80;99.90;;;;;;5078718;28;19920;-62
2023/02/08 01:13:44;;;;;;;;;;;-0.80;99.90;;;;;;5079263;28;19921;-62
2023/02/08 01:16:12;;;;;;;;;;;-0.80;99.90;;;;;;5078278;28;19927;-62
2023/02/08 01:18:41;;;;;;;;;;;-0.90;99.90;;;;;;5079140;28;19920;-62
2023/02/08 01:21:09;;;;;;;;;;;-0.90;99.90;;;;;;5078734;28;19920;-62
2023/02/08 01:23:36;;;;;;;;;;;-1.00;99.90;;;;;;5078634;28;19920;-63
2023/02/08 01:26:03;;;;;;;;;;;-1.00;99.90;;;;;;5078356;28;19921;-62
2023/02/08 01:28:30;;;;;;;;;;;-1.00;99.90;;;;;;5076449;28;19927;-62
2023/02/08 01:30:57;;;;;;;;;;;-1.10;99.90;;;;;;5078131;28;20293;-62
2023/02/08 01:33:24;;;;;;;;;;;-1.10;99.90;;;;;;5074901;28;19920;-63
2023/02/08 01:35:53;;;;;;;;;;;-1.20;99.90;;;;;;5074788;28;19924;-63
2023/02/08 01:38:20;;;;;;;;;;;-1.30;99.90;;;;;;5074720;28;19927;-63
2023/02/08 01:40:47;;;;;;;;;;;-1.40;99.90;;;;;;5075350;28;19920;-63
2023/02/08 01:43:19;;;;;;;;;;;-1.40;99.90;;;;;;5074494;28;19920;-63
2023/02/08 01:45:46;;;;;;;;;;;-1.40;99.90;;;;;;5076123;28;20228;-62
2023/02/08 01:48:16;;;;;;;;;;;-1.50;99.90;;;;;;5076744;28;19921;-62
2023/02/08 01:50:45;;;;;;;;;;;-1.40;99.90;;;;;;5076799;28;20366;-63
2023/02/08 01:53:13;;;;;;;;;;;-1.40;99.90;;;;;;5075898;28;20362;-63
2023/02/08 01:55:43;;;;;;;;;;;-1.40;99.90;;;;;;5075867;28;20239;-63
2023/02/08 01:58:11;;;;;;;;;;;-1.40;99.90;;;;;;5075733;28;19927;-62
2023/02/08 02:00:38;;;;;;;;;;;-1.40;99.90;;;;;;5076435;28;19920;-63
2023/02/08 02:03:06;;;;;;;;;;;-1.30;99.90;;;;;;5078155;28;19927;-62
2023/02/08 02:05:35;;;;;;;;;;;-1.20;99.90;;;;;;5078912;28;19926;-62
2023/02/08 02:08:02;;;;;;;;;;;-1.20;99.90;;;;;;5077905;28;19920;-62
2023/02/08 02:10:31;;;;;;;;;;;-1.20;99.90;;;;;;5078366;28;19920;-62
2023/02/08 02:13:02;;;;;;;;;;;-1.20;99.90;;;;;;5077877;28;19924;-63
2023/02/08 02:15:29;;;;;;;;;;;-1.20;99.90;;;;;;5076737;28;19921;-62
2023/02/08 02:17:55;;;;;;;;;;;-1.30;99.90;;;;;;5078247;28;20204;-62
2023/02/08 02:20:24;;;;;;;;;;;-1.20;99.90;;;;;;5077793;28;19920;-63
2023/02/08 02:23:09;;;;;;;;;;;-1.10;99.90;;;;;;5077592;28;19927;-63
2023/02/08 02:26:00;;;;;;;;;;;-1.00;99.90;;;;;;5076959;28;19921;-63
2023/02/08 02:28:36;;;;;;;;;;;-1.00;99.90;;;;;;5078259;28;19928;-63
2023/02/08 02:31:21;;;;;;;;;;;-1.00;99.90;;;;;;5077238;28;20205;-63
2023/02/08 02:33:53;;;;;;;;;;;-1.00;99.90;;;;;;5035353;28;19928;-63
2023/02/08 02:36:27;;;;;;;;;;;-1.00;99.90;;;;;;5076841;28;20216;-63
2023/02/08 02:39:02;;;;;;;;;;;-0.80;99.90;;;;;;5077856;28;19931;-63
2023/02/08 02:44:22;;;;;;;;;;;-0.60;99.90;;;;;;5077135;28;20065;-63
2023/02/08 02:46:52;;;;;;;;;;;-0.70;99.90;;;;;;5077379;28;19999;-63
2023/02/08 02:49:24;;;;;;;;;;;-0.90;99.90;;;;;;5077561;28;19920;-63
2023/02/08 02:51:56;;;;;;;;;;;-0.90;99.90;;;;;;5074203;28;19942;-62
2023/02/08 02:54:25;;;;;;;;;;;-0.90;99.90;;;;;;5076844;28;19966;-62
2023/02/08 02:56:55;;;;;;;;;;;-1.00;99.90;;;;;;5076489;28;20300;-63
2023/02/08 02:59:23;;;;;;;;;;;-1.00;99.90;;;;;;5077355;28;19928;-62
2023/02/08 03:01:50;;;;;;;;;;;-0.90;99.90;;;;;;5070805;28;20338;-62
2023/02/08 03:04:17;;;;;;;;;;;-0.80;99.90;;;;;;5076490;28;19921;-64
2023/02/08 03:06:53;;;;;;;;;;;-0.80;99.90;;;;;;5075540;28;19940;-65
2023/02/08 03:09:30;;;;;;;;;;;-0.90;99.90;;;;;;5076143;28;19935;-63
2023/02/08 03:12:02;;;;;;;;;;;-0.90;99.90;;;;;;5076643;28;19920;-63
2023/02/08 03:14:34;;;;;;;;;;;-0.90;99.90;;;;;;5076823;28;19927;-63
2023/02/08 03:17:04;;;;;;;;;;;-1.00;99.90;;;;;;5077129;28;19921;-63
2023/02/08 03:19:34;;;;;;;;;;;-1.10;99.90;;;;;;5072686;28;19952;-63
2023/02/08 03:22:06;;;;;;;;;;;-1.20;99.90;;;;;;5077069;28;19947;-63
2023/02/08 03:24:38;;;;;;;;;;;-1.20;99.90;;;;;;5076435;28;20014;-63
2023/02/08 03:27:06;;;;;;;;;;;-1.20;99.90;;;;;;5074893;28;20240;-63
2023/02/08 03:29:39;;;;;;;;;;;-1.20;99.90;;;;;;5073006;28;19920;-63
2023/02/08 03:32:09;;;;;;;;;;;-1.30;99.90;;;;;;5076467;28;19926;-62
2023/02/08 03:34:43;;;;;;;;;;;-1.40;99.90;;;;;;5076363;28;19928;-63
2023/02/08 03:37:14;;;;;;;;;;;-1.50;99.90;;;;;;5074261;28;20324;-63
2023/02/08 03:39:41;;;;;;;;;;;-1.40;99.90;;;;;;5076536;28;20315;-62
2023/02/08 03:42:11;;;;;;;;;;;-1.40;99.90;;;;;;5076578;28;19920;-63
2023/02/08 03:44:40;;;;;;;;;;;-1.30;99.90;;;;;;5076671;28;20319;-63
2023/02/08 03:47:09;;;;;;;;;;;-1.40;99.90;;;;;;5074589;28;20338;-63
2023/02/08 03:49:37;;;;;;;;;;;-1.30;99.90;;;;;;5076686;28;20330;-63
2023/02/08 03:52:06;;;;;;;;;;;-1.20;99.90;;;;;;5074810;28;19921;-63
2023/02/08 03:54:36;;;;;;;;;;;-1.20;99.90;;;;;;5075400;28;20314;-63
2023/02/08 03:57:05;;;;;;;;;;;-1.30;99.90;;;;;;5074650;28;19958;-62
2023/02/08 03:59:34;;;;;;;;;;;-1.20;99.90;;;;;;5076566;28;20006;-63
2023/02/08 04:02:02;;;;;;;;;;;-1.30;99.90;;;;;;5076204;28;19927;-62
2023/02/08 04:04:33;;;;;;;;;;;-1.40;99.90;;;;;;5075500;28;19920;-63
2023/02/08 04:07:00;;;;;;;;;;;-1.50;99.90;;;;;;5072600;28;19966;-63
2023/02/08 04:09:27;;;;;;;;;;;-1.50;99.90;;;;;;5056123;28;19921;-63
2023/02/08 04:11:55;;;;;;;;;;;-1.60;99.90;;;;;;5056418;28;19920;-63
2023/02/08 04:14:22;;;;;;;;;;;-1.60;99.90;;;;;;5055182;28;19927;-63
2023/02/08 04:16:49;;;;;;;;;;;-1.50;99.90;;;;;;5056019;28;19921;-62
2023/02/08 04:19:15;;;;;;;;;;;-1.50;99.90;;;;;;5076024;28;20310;-65
2023/02/08 04:21:42;;;;;;;;;;;-1.60;99.90;;;;;;5075834;28;20312;-63
2023/02/08 04:24:09;;;;;;;;;;;-1.70;99.90;;;;;;5074883;28;20327;-62
2023/02/08 04:26:36;;;;;;;;;;;-1.70;99.90;;;;;;5068086;28;20240;-62
2023/02/08 04:29:04;;;;;;;;;;;-1.80;99.90;;;;;;5054304;28;20208;-62
2023/02/08 04:31:31;;;;;;;;;;;-1.70;99.90;;;;;;5054442;28;20428;-62
2023/02/08 04:33:58;;;;;;;;;;;-1.80;99.90;;;;;;5054576;28;19920;-62
2023/02/08 04:36:25;;;;;;;;;;;-1.70;99.90;;;;;;5064983;28;19924;-62
2023/02/08 04:38:52;;;;;;;;;;;-1.50;99.90;;;;;;5071897;28;20326;-62
2023/02/08 04:41:19;;;;;;;;;;;-1.50;99.90;;;;;;5076270;28;19926;-62
2023/02/08 04:43:46;;;;;;;;;;;-1.50;99.90;;;;;;5075363;28;19924;-62
2023/02/08 04:46:14;;;;;;;;;;;-1.50;99.90;;;;;;5076189;28;20306;-62
2023/02/08 04:48:41;;;;;;;;;;;-1.50;99.90;;;;;;5066448;28;19929;-62
2023/02/08 04:51:08;;;;;;;;;;;-1.50;99.90;;;;;;5075384;28;20305;-63
2023/02/08 04:53:35;;;;;;;;;;;-1.40;99.90;;;;;;5074959;28;19942;-62
2023/02/08 04:56:01;;;;;;;;;;;-1.30;99.90;;;;;;5074830;28;19950;-62
2023/02/08 04:58:28;;;;;;;;;;;-1.30;99.90;;;;;;5071519;28;20304;-63
2023/02/08 05:00:55;;;;;;;;;;;-1.30;99.90;;;;;;5075568;28;19920;-63
2023/02/08 05:03:23;;;;;;;;;;;-1.40;99.90;;;;;;5079055;28;19927;-64
2023/02/08 05:05:56;;;;;;;;;;;-1.40;99.90;;;;;;5078232;28;19947;-63
2023/02/08 05:08:23;;;;;;;;;;;-1.50;99.90;;;;;;5067710;28;20489;-63
2023/02/08 05:10:50;;;;;;;;;;;-1.50;99.90;;;;;;5075710;28;19927;-63
2023/02/08 05:13:17;;;;;;;;;;;-1.60;99.90;;;;;;5075141;28;19924;-63
2023/02/08 05:15:44;;;;;;;;;;;-1.60;99.90;;;;;;5076138;28;19927;-63
2023/02/08 05:18:10;;;;;;;;;;;-1.50;99.90;;;;;;5075475;28;19920;-63
2023/02/08 05:20:39;;;;;;;;;;;-1.60;99.90;;;;;;5077510;28;19924;-63
2023/02/08 05:23:06;;;;;;;;;;;-1.60;99.90;;;;;;5077887;28;20228;-63
2023/02/08 05:25:32;;;;;;;;;;;-1.60;99.90;;;;;;5077573;28;19983;-63
2023/02/08 05:27:59;;;;;;;;;;;-1.60;99.90;;;;;;5076845;28;19920;-62
2023/02/08 05:30:26;;;;;;;;;;;-1.60;99.90;;;;;;5078017;28;19927;-63
2023/02/08 05:32:53;;;;;;;;;;;-1.50;99.90;;;;;;5077941;28;20360;-63
2023/02/08 05:35:20;;;;;;;;;;;-1.60;99.90;;;;;;5068150;28;19921;-63
2023/02/08 05:37:48;;;;;;;;;;;-1.60;99.90;;;;;;5077271;28;19928;-63
2023/02/08 05:40:15;;;;;;;;;;;-1.60;99.90;;;;;;5077169;28;20223;-63
2023/02/08 05:42:43;;;;;;;;;;;-1.70;99.90;;;;;;5077454;28;19924;-62
2023/02/08 05:45:10;;;;;;;;;;;-1.70;99.90;;;;;;5077900;28;19920;-62
2023/02/08 05:47:37;;;;;;;;;;;-1.70;99.90;;;;;;5062556;28;19956;-62
2023/02/08 05:50:04;;;;;;;;;;;-1.60;99.90;;;;;;5056130;28;19921;-62
2023/02/08 05:52:31;;;;;;;;;;;-1.50;99.90;;;;;;5055819;28;20043;-63
2023/02/08 05:54:59;;;;;;;;;;;-1.30;99.90;;;;;;5053728;28;20247;-62
2023/02/08 05:57:26;;;;;;;;;;;-1.30;99.90;;;;;;5059425;28;19920;-62
2023/02/08 05:59:53;;;;;;;;;;;-1.30;99.90;;;;;;5072615;28;19924;-62
2023/02/08 06:02:20;;;;;;;;;;;-1.40;99.90;;;;;;5070847;28;19927;-63
2023/02/08 06:04:46;;;;;;;;;;;-1.60;99.90;;;;;;5074352;28;20371;-62
2023/02/08 06:07:13;;;;;;;;;;;-1.70;99.90;;;;;;5074311;28;19932;-62
2023/02/08 06:09:40;;;;;;;;;;;-1.80;99.90;;;;;;5076124;28;19926;-61
2023/02/08 06:12:08;;;;;;;;;;;-1.30;99.90;;;;;;5075655;28;19920;-61
2023/02/08 06:14:35;;;;;;;;;;;-0.70;99.90;;;;;;5075271;28;19928;-61
2023/02/08 06:17:02;;;;;;;;;;;-0.10;99.90;;;;;;5075620;28;19920;-61
2023/02/08 06:19:29;;;;;;;;;;;0.40;99.90;;;;;;5075858;28;19920;-61
2023/02/08 06:21:56;;;;;;;;;;;0.20;99.90;;;;;;5072158;28;19928;-61
2023/02/08 06:24:24;;;;;;;;;;;-0.20;99.90;;;;;;5074580;28;19927;-61
2023/02/08 06:26:51;;;;;;;;;;;-0.20;99.90;;;;;;5071418;28;20232;-61
2023/02/08 06:29:19;;;;;;;;;;;-0.20;99.90;;;;;;5070924;28;19928;-59
2023/02/08 06:31:46;;;;;;;;;;;0.20;99.90;;;;;;5074135;28;19925;-59
2023/02/08 06:34:12;;;;;;;;;;;0.30;99.90;;;;;;5074613;28;19921;-60
2023/02/08 06:36:39;;;;;;;;;;;0.60;99.90;;;;;;5073461;28;20193;-60
2023/02/08 06:39:06;;;;;;;;;;;0.70;99.90;;;;;;5073290;28;20405;-60
2023/02/08 06:41:33;;;;;;;;;;;0.80;99.90;;;;;;5069319;28;19921;-60
2023/02/08 06:44:01;;;;;;;;;;;0.80;99.90;;;;;;5073154;28;19928;-60
2023/02/08 06:46:29;;;;;;;;;;;0.70;99.90;;;;;;5074010;28;19966;-60
2023/02/08 06:48:57;;;;;;;;;;;0.60;99.90;;;;;;5075303;28;19921;-60
2023/02/08 06:51:24;;;;;;;;;;;0.80;99.90;;;;;;5062443;28;19921;-60
2023/02/08 06:53:51;;;;;;;;;;;0.10;99.90;;;;;;5053197;28;20018;-60
2023/02/08 06:56:18;;;;;;;;;;;0.40;99.90;;;;;;5051148;28;19921;-60
2023/02/08 06:58:45;;;;;;;;;;;0.50;99.90;;;;;;5053330;28;20063;-61
2023/02/08 07:01:13;;;;;;;;;;;0.70;99.90;;;;;;5060598;28;19926;-61
2023/02/08 07:03:41;;;;;;;;;;;0.60;99.90;;;;;;5073964;28;20324;-60
2023/02/08 07:06:12;;;;;;;;;;;0.20;99.90;;;;;;5066348;28;19928;-61
2023/02/08 07:08:38;;;;;;;;;;;0.50;99.90;;;;;;5075554;28;19920;-60
2023/02/08 07:11:09;;;;;;;;;;;0.50;99.90;;;;;;5073640;28;19928;-60
2023/02/08 07:13:36;;;;;;;;;;;0.60;99.90;;;;;;5074418;28;19926;-60
2023/02/08 07:16:03;;;;;;;;;;;0.50;99.90;;;;;;5068762;28;19924;-60
2023/02/08 07:18:30;;;;;;;;;;;0.50;99.90;;;;;;5064034;28;19921;-60
2023/02/08 07:20:58;;;;;;;;;;;0.40;99.90;;;;;;5067070;28;19931;-60
2023/02/08 07:23:25;;;;;;;;;;;0.20;99.90;;;;;;5074563;28;20445;-60
2023/02/08 07:26:02;;;;;;;;;;;-0.10;99.90;;;;;;5070763;28;20330;-60
2023/02/08 07:28:29;;;;;;;;;;;0.10;99.90;;;;;;5071569;28;20334;-60
2023/02/08 07:30:56;;;;;;;;;;;0.40;99.90;;;;;;5072607;28;19920;-60
2023/02/08 07:33:23;;;;;;;;;;;0.60;99.90;;;;;;5069449;28;20374;-61
2023/02/08 07:35:50;;;;;;;;;;;0.80;99.90;;;;;;5054591;28;19921;-60
2023/02/08 07:38:19;;;;;;;;;;;0.70;99.90;;;;;;5054140;28;19927;-61
2023/02/08 07:40:46;;;;;;;;;;;0.30;99.90;;;;;;5052605;28;20478;-61
2023/02/08 07:43:12;;;;;;;;;;;0.50;99.90;;;;;;5071423;28;19954;-61
2023/02/08 07:45:39;;;;;;;;;;;0.60;99.90;;;;;;5072009;28;20376;-61
2023/02/08 07:48:07;;;;;;;;;;;0.70;99.90;;;;;;5072529;28;19927;-61
2023/02/08 07:50:33;;;;;;;;;;;0.30;99.90;;;;;;5071962;28;19927;-60
2023/02/08 07:53:00;;;;;;;;;;;-0.10;99.90;;;;;;5069065;28;19920;-61
2023/02/08 07:55:28;;;;;;;;;;;0.00;99.90;;;;;;5066606;28;19924;-61
2023/02/08 07:57:57;;;;;;;;;;;0.10;99.90;;;;;;5074643;28;19946;-61
2023/02/08 08:00:25;;;;;;;;;;;0.50;99.90;;;;;;5072013;28;20375;-61
2023/02/08 08:02:52;;;;;;;;;;;0.50;99.90;;;;;;5071884;28;19974;-61
2023/02/08 08:05:19;;;;;;;;;;;0.20;99.90;;;;;;5070582;28;20255;-61
2023/02/08 08:07:46;;;;;;;;;;;0.30;99.90;;;;;;5074069;28;19954;-61
2023/02/08 08:10:13;;;;;;;;;;;0.00;99.90;;;;;;5071917;28;19927;-61
2023/02/08 08:12:42;;;;;;;;;;;0.00;99.90;;;;;;5072588;28;19927;-61
2023/02/08 08:15:09;;;;;;;;;;;0.20;99.90;;;;;;5063577;28;19920;-61
2023/02/08 08:17:36;;;;;;;;;;;0.20;99.90;;;;;;5072772;28;19930;-61
2023/02/08 08:20:03;;;;;;;;;;;-0.10;99.90;;;;;;5071543;28;19920;-62
2023/02/08 08:22:30;;;;;;;;;;;0.10;99.90;;;;;;5070911;28;19920;-62
2023/02/08 08:24:57;;;;;;;;;;;0.10;99.90;;;;;;5071458;28;19932;-64
2023/02/08 08:27:24;;;;;;;;;;;-0.10;99.90;;;;;;5073660;28;20324;-62
2023/02/08 08:29:52;;;;;;;;;;;-0.20;99.90;;;;;;5072031;28;20285;-61
2023/02/08 08:32:19;;;;;;;;;;;-0.20;99.90;;;;;;5073442;28;19924;-62
2023/02/08 08:34:46;;;;;;;;;;;-0.10;99.90;;;;;;5066720;28;19920;-61
2023/02/08 08:37:13;;;;;;;;;;;0.50;99.90;;;;;;5071216;28;19924;-62
2023/02/08 08:39:40;;;;;;;;;;;0.50;99.90;;;;;;5072855;28;19924;-59
2023/02/08 08:42:07;;;;;;;;;;;0.30;99.90;;;;;;5070535;28;19927;-59
2023/02/08 08:44:33;;;;;;;;;;;0.30;99.90;;;;;;5073071;28;19942;-60
2023/02/08 08:47:02;;;;;;;;;;;0.60;99.90;;;;;;5075617;28;19926;-61
2023/02/08 08:49:29;;;;;;;;;;;1.00;99.90;;;;;;5055897;28;19921;-61
2023/02/08 08:51:56;;;;;;;;;;;1.10;99.90;;;;;;5067123;28;19920;-61
2023/02/08 08:54:23;;;;;;;;;;;1.00;99.90;;;;;;5075511;28;19920;-61
2023/02/08 08:56:50;;;;;;;;;;;0.80;99.90;;;;;;5075404;28;19927;-61
2023/02/08 08:59:17;;;;;;;;;;;0.60;99.90;;;;;;5074571;28;19947;-61
2023/02/08 09:01:44;;;;;;;;;;;0.50;99.90;;;;;;5076200;28;19920;-61
2023/02/08 09:04:12;;;;;;;;;;;0.40;99.90;;;;;;5074282;28;19920;-61
2023/02/08 09:06:39;;;;;;;;;;;0.40;99.90;;;;;;5071969;28;19920;-60
2023/02/08 09:09:06;;;;;;;;;;;0.40;99.90;;;;;;5076470;28;19925;-60
2023/02/08 09:11:33;;;;;;;;;;;0.20;99.90;;;;;;5073526;28;19920;-61
2023/02/08 09:14:01;;;;;;;;;;;0.10;99.90;;;;;;5076832;28;19920;-60
2023/02/08 09:16:28;;;;;;;;;;;-0.20;99.90;;;;;;5066508;28;19920;-61
2023/02/08 09:18:55;;;;;;;;;;;-0.10;99.90;;;;;;5076440;28;19920;-61
2023/02/08 09:21:25;;;;;;;;;;;0.00;99.90;;;;;;5075590;28;19920;-60
2023/02/08 09:23:52;;;;;;;;;;;0.00;99.90;;;;;;5072843;28;21059;-61
2023/02/08 09:26:19;;;;;;;;;;;0.10;99.90;;;;;;5074006;28;19920;-61
2023/02/08 09:28:46;;;;;;;;;;;0.10;99.90;;;;;;5072644;28;20222;-61
2023/02/08 09:31:18;;;;;;;;;;;0.10;99.90;;;;;;5073204;28;20498;-61
2023/02/08 09:33:45;;;;;;;;;;;0.10;99.90;;;;;;5075048;28;19921;-62
2023/02/08 09:36:12;;;;;;;;;;;0.10;99.90;;;;;;5056360;28;19921;-61
2023/02/08 09:38:41;;;;;;;;;;;0.20;99.90;;;;;;5065177;28;19927;-61
2023/02/08 09:41:16;;;;;;;;;;;0.30;99.90;;;;;;5075468;28;20405;-61
2023/02/08 09:43:47;;;;;;;;;;;0.30;99.90;;;;;;5073012;28;20339;-61
2023/02/08 09:46:16;;;;;;;;;;;0.50;99.90;;;;;;5072001;28;20548;-61
2023/02/08 09:48:43;;;;;;;;;;;0.50;99.90;;;;;;5073081;28;19950;-63
2023/02/08 09:51:14;;;;;;;;;;;0.60;99.90;;;;;;5072256;28;20377;-63
2023/02/08 09:53:46;;;;;;;;;;;0.60;99.90;;;;;;5074297;28;20304;-63
2023/02/08 09:56:15;;;;;;;;;;;0.60;99.90;;;;;;5072563;28;19927;-66
2023/02/08 09:58:44;;;;;;;;;;;0.70;99.90;;;;;;5071138;28;19921;-64
2023/02/08 10:01:17;;;;;;;;;;;0.80;99.90;;;;;;5076543;28;19931;-65
2023/02/08 10:03:44;;;;;;;;;;;0.90;99.90;;;;;;5076142;28;19931;-65
2023/02/08 10:06:12;;;;;;;;;;;0.90;99.90;;;;;;5072349;28;19920;-65
2023/02/08 10:08:40;;;;;;;;;;;0.90;99.90;;;;;;5070681;28;20313;-63
2023/02/08 10:11:19;;;;;;;;;;;0.90;99.90;;;;;;5073670;28;19924;-64
2023/02/08 10:13:53;;;;;;;;;;;1.00;99.90;;;;;;5069153;28;19963;-65
2023/02/08 10:16:30;;;;;;;;;;;1.10;99.90;;;;;;5067200;28;20128;-64
2023/02/08 10:19:01;;;;;;;;;;;1.10;99.90;;;;;;5073622;28;20438;-64
2023/02/08 10:21:50;;;;;;;;;;;1.10;99.90;;;;;;5071553;28;19920;-64
2023/02/08 10:24:26;;;;;;;;;;;1.10;99.90;;;;;;5069853;28;19927;-63
2023/02/08 10:26:58;;;;;;;;;;;1.20;99.90;;;;;;5071316;28;20259;-65
2023/02/08 10:29:34;;;;;;;;;;;1.30;99.90;;;;;;5071557;28;20240;-63
2023/02/08 10:32:06;;;;;;;;;;;1.40;99.90;;;;;;5071435;28;19920;-58
2023/02/08 10:34:40;;;;;;;;;;;1.40;99.90;;;;;;5070269;28;19965;-58
2023/02/08 10:37:12;;;;;;;;;;;1.50;99.90;;;;;;5063246;28;19927;-58
2023/02/08 10:39:40;;;;;;;;;;;1.40;99.90;;;;;;5071423;28;19927;-58
2023/02/08 10:42:12;;;;;;;;;;;1.50;99.90;;;;;;5061790;28;20314;-57
2023/02/08 10:44:44;;;;;;;;;;;1.50;99.90;;;;;;5072759;28;20022;-57
2023/02/08 10:47:14;;;;;;;;;;;1.60;99.90;;;;;;5071693;28;19921;-57
2023/02/08 10:49:44;;;;;;;;;;;1.70;99.90;;;;;;5067049;28;19921;-57
2023/02/08 10:52:12;;;;;;;;;;;1.80;99.90;;;;;;5068953;28;19920;-58
2023/02/08 10:54:39;;;;;;;;;;;1.90;99.90;;;;;;5072311;28;19920;-57
2023/02/08 10:57:11;;;;;;;;;;;2.00;99.90;;;;;;5070340;28;20310;-58
2023/02/08 10:59:49;;;;;;;;;;;2.00;99.90;;;;;;5067654;28;20514;-57
2023/02/08 11:02:20;;;;;;;;;;;2.10;99.90;;;;;;5074167;28;19921;-59
2023/02/08 11:04:57;;;;;;;;;;;2.30;99.90;;;;;;5072764;28;19920;-55
2023/02/08 11:07:24;;;;;;;;;;;2.20;99.90;;;;;;5069060;28;19921;-57
2023/02/08 11:09:51;;;;;;;;;;;2.30;99.90;;;;;;5050666;28;19931;-57
2023/02/08 11:12:19;;;;;;;;;;;2.40;99.90;;;;;;5061485;28;20256;-57
2023/02/08 11:14:51;;;;;;;;;;;2.50;99.90;;;;;;5068055;28;19934;-60
2023/02/08 11:17:24;;;;;;;;;;;2.50;99.90;;;;;;5069257;28;19927;-57
2023/02/08 11:19:51;;;;;;;;;;;2.60;99.90;;;;;;5069366;28;19920;-57
2023/02/08 11:22:19;;;;;;;;;;;2.60;99.90;;;;;;5071808;28;20015;-56
2023/02/08 11:24:53;;;;;;;;;;;2.60;99.90;;;;;;5066012;28;19921;-59
2023/02/08 11:27:30;;;;;;;;;;;2.70;99.90;;;;;;5071524;28;19921;-58
2023/02/08 11:30:19;;;;;;;;;;;2.90;99.90;;;;;;5066723;28;20277;-58
2023/02/08 11:32:47;;;;;;;;;;;3.10;99.90;;;;;;5060328;28;20352;-59
2023/02/08 11:35:20;;;;;;;;;;;3.30;99.90;;;;;;5055668;28;19993;-59
2023/02/08 11:37:48;;;;;;;;;;;3.40;99.90;;;;;;5071744;28;19932;-59
2023/02/08 11:40:17;;;;;;;;;;;3.60;99.90;;;;;;5070141;28;19920;-59
2023/02/08 11:42:45;;;;;;;;;;;3.70;99.90;;;;;;5072158;28;19920;-59
2023/02/08 11:45:19;;;;;;;;;;;3.70;99.70;;;;;;5071141;28;19975;-59
2023/02/08 11:47:47;;;;;;;;;;;3.80;98.70;;;;;;5070743;28;19924;-60
2023/02/08 11:50:23;;;;;;;;;;;3.90;99.20;;;;;;5067460;28;20316;-59
2023/02/08 11:52:53;;;;;;;;;;;4.00;98.20;;;;;;5070856;28;20354;-59
2023/02/08 11:55:24;;;;;;;;;;;3.90;97.60;;;;;;5067985;28;20357;-59
2023/02/08 11:57:54;;;;;;;;;;;4.00;97.80;;;;;;5061799;28;19920;-57
2023/02/08 12:00:25;;;;;;;;;;;4.00;98.10;;;;;;5058505;28;20030;-58
2023/02/08 12:02:55;;;;;;;;;;;4.20;97.20;;;;;;5067035;28;20092;-57
2023/02/08 12:05:29;;;;;;;;;;;4.20;98.60;;;;;;5069609;28;19943;-56
2023/02/08 12:08:02;;;;;;;;;;;4.40;97.20;;;;;;5051601;28;20347;-57
2023/02/08 12:10:46;;;;;;;;;;;4.50;95.70;;;;;;5060505;28;20027;-58
2023/02/08 12:13:30;;;;;;;;;;;4.50;96.00;;;;;;5069431;28;19931;-58
2023/02/08 12:16:06;;;;;;;;;;;4.50;96.30;;;;;;5069693;28;20335;-59
2023/02/08 12:18:45;;;;;;;;;;;4.50;96.40;;;;;;5065990;28;19962;-58
2023/02/08 12:21:14;;;;;;;;;;;4.70;95.10;;;;;;5064648;28;20007;-59
2023/02/08 12:23:46;;;;;;;;;;;4.80;93.50;;;;;;5069298;28;19920;-58
2023/02/08 12:26:16;;;;;;;;;;;5.00;94.00;;;;;;5069498;28;19985;-58
2023/02/08 12:28:50;;;;;;;;;;;5.00;93.10;;;;;;5068248;28;19920;-58
2023/02/08 12:31:23;;;;;;;;;;;5.10;92.40;;;;;;5065556;28;20011;-57
2023/02/08 12:33:56;;;;;;;;;;;5.20;93.50;;;;;;5067863;28;19928;-58
2023/02/08 12:36:36;;;;;;;;;;;5.30;92.00;;;;;;5071270;28;20234;-57
2023/02/08 12:42:02;;;;;;;;;;;5.30;90.60;;;;;;5067678;28;19939;-55
2023/02/08 12:44:33;;;;;;;;;;;5.20;90.00;;;;;;5073214;28;19926;-54
2023/02/08 12:47:05;;;;;;;;;;;5.10;89.60;;;;;;5071793;28;19924;-56
2023/02/08 12:49:40;;;;;;;;;;;5.00;90.50;;;;;;5071638;28;19920;-57
2023/02/08 12:52:16;;;;;;;;;;;5.00;90.30;;;;;;5070729;28;19921;-56
2023/02/08 12:54:46;;;;;;;;;;;5.00;91.00;;;;;;5069683;28;20197;-58
2023/02/08 12:57:14;;;;;;;;;;;5.00;89.50;;;;;;5069728;28;19924;-58
2023/02/08 12:59:45;;;;;;;;;;;5.00;90.10;;;;;;5060153;28;20244;-55
2023/02/08 13:02:14;;;;;;;;;;;4.90;90.00;;;;;;5066312;28;19924;-58
2023/02/08 13:04:44;;;;;;;;;;;5.00;90.40;;;;;;5069958;28;20314;-56
2023/02/08 13:07:13;;;;;;;;;;;4.90;90.00;;;;;;5065003;28;19921;-56
2023/02/08 13:09:43;;;;;;;;;;;4.80;90.10;;;;;;5067911;28;19942;-58
2023/02/08 13:12:14;;;;;;;;;;;4.90;90.30;;;;;;5067408;28;19944;-58
2023/02/08 13:14:43;;;;;;;;;;;4.90;90.50;;;;;;5068849;28;19959;-58
2023/02/08 13:17:13;;;;;;;;;;;4.90;90.90;;;;;;5069885;28;20017;-58
2023/02/08 13:19:48;;;;;;;;;;;4.80;89.90;;;;;;5071835;28;19929;-57
2023/02/08 13:22:16;;;;;;;;;;;4.90;89.80;;;;;;5072084;28;20227;-57
2023/02/08 13:24:44;;;;;;;;;;;4.80;90.10;;;;;;5075605;28;20312;-57
2023/02/08 13:27:15;;;;;;;;;;;4.90;90.70;;;;;;5067024;28;20135;-55
2023/02/08 13:29:45;;;;;;;;;;;5.00;90.50;;;;;;5054822;28;19970;-56
2023/02/08 13:32:19;;;;;;;;;;;4.90;89.40;;;;;;5064837;28;20435;-53
2023/02/08 13:34:50;;;;;;;;;;;4.90;88.70;;;;;;5074816;28;20026;-49
2023/02/08 13:37:19;;;;;;;;;;;4.90;90.10;;;;;;5075763;28;19924;-56
2023/02/08 13:39:47;;;;;;;;;;;5.00;90.30;;;;;;5076895;28;19973;-55
2023/02/08 13:42:22;;;;;;;;;;;5.00;90.20;;;;;;5075298;28;19920;-53
2023/02/08 13:44:50;;;;;;;;;;;4.90;88.10;;;;;;5074127;28;19982;-52
2023/02/08 13:47:22;;;;;;;;;;;4.80;90.20;;;;;;5076380;28;20240;-55
2023/02/08 13:49:56;;;;;;;;;;;4.80;90.60;;;;;;5075535;28;20393;-51
2023/02/08 13:52:41;;;;;;;;;;;4.90;90.90;;;;;;5075624;28;20309;-54
2023/02/08 13:55:26;;;;;;;;;;;4.90;91.20;;;;;;5073700;28;19934;-51
2023/02/08 13:57:55;;;;;;;;;;;4.90;90.50;;;;;;5071944;28;20308;-52
2023/02/08 14:00:22;;;;;;;;;;;5.00;90.20;;;;;;5071950;28;19921;-50
2023/02/08 14:02:58;;;;;;;;;;;5.00;91.00;;;;;;5066842;28;20145;-52
2023/02/08 14:05:42;;;;;;;;;;;5.00;91.00;;;;;;5073561;28;20015;-50
2023/02/08 14:08:16;;;;;;;;;;;4.90;89.90;;;;;;5061619;28;19931;-55
2023/02/08 14:10:46;;;;;;;;;;;4.90;90.70;;;;;;5074797;28;20203;-51
2023/02/08 14:13:22;;;;;;;;;;;4.90;91.10;;;;;;5062367;28;19921;-51
2023/02/08 14:16:09;;;;;;;;;;;4.90;91.30;;;;;;5068810;28;19921;-57
2023/02/08 14:18:36;;;;;;;;;;;4.90;90.90;;;;;;5064827;28;20374;-51
2023/02/08 14:21:06;;;;;;;;;;;4.90;91.60;;;;;;5070988;28;19924;-51
2023/02/08 14:23:35;;;;;;;;;;;4.90;91.90;;;;;;5071156;28;20320;-52
2023/02/08 14:26:05;;;;;;;;;;;4.80;91.40;;;;;;5075187;28;19925;-55
2023/02/08 14:28:33;;;;;;;;;;;4.70;91.40;;;;;;5072191;28;20499;-56
2023/02/08 14:31:02;;;;;;;;;;;4.70;92.60;;;;;;5073728;28;19920;-54
2023/02/08 14:33:30;;;;;;;;;;;4.70;92.40;;;;;;5070338;28;20375;-51
2023/02/08 14:35:59;;;;;;;;;;;4.60;92.60;;;;;;5069948;28;19924;-55
2023/02/08 14:38:36;;;;;;;;;;;4.60;93.10;;;;;;5065874;28;20232;-56
2023/02/08 14:41:03;;;;;;;;;;;4.50;93.50;;;;;;5065465;28;19921;-55